createdAt,value
2023-05-21T00:00:38.349Z,70.26
2023-05-21T00:01:38.356Z,70.06
2023-05-21T00:02:38.451Z,70.06
2023-05-21T00:03:38.373Z,70.06
2023-05-21T00:04:38.315Z,70.15
2023-05-21T00:05:38.639Z,70.06
2023-05-21T00:06:38.316Z,70.15
2023-05-21T00:07:38.295Z,70.15
2023-05-21T00:08:38.264Z,70.36
2023-05-21T00:09:38.301Z,70.15
2023-05-21T00:10:38.253Z,70.06
2023-05-21T00:11:38.260Z,70.15
2023-05-21T00:12:38.219Z,70.46
2023-05-21T00:13:38.251Z,70.36
2023-05-21T00:14:38.199Z,70.26
2023-05-21T00:15:38.341Z,70.36
2023-05-21T00:16:38.334Z,70.26
2023-05-21T00:17:38.237Z,70.56
2023-05-21T00:18:38.156Z,70.56
2023-05-21T00:19:38.170Z,70.66
2023-05-21T00:20:38.140Z,70.56
2023-05-21T00:21:38.174Z,70.86
2023-05-21T00:22:38.133Z,70.66
2023-05-21T00:23:38.121Z,70.66
2023-05-21T00:24:38.102Z,70.89
2023-05-21T00:25:38.101Z,70.89
2023-05-21T00:26:38.067Z,70.89
2023-05-21T00:27:38.095Z,70.79
2023-05-21T00:28:38.051Z,70.89
2023-05-21T00:29:38.050Z,71.00
2023-05-21T00:30:38.031Z,70.89
2023-05-21T00:31:38.099Z,70.79
2023-05-21T00:32:38.043Z,71.00
2023-05-21T00:33:38.005Z,71.30
2023-05-21T00:34:37.984Z,71.20
2023-05-21T00:35:38.071Z,71.10
2023-05-21T00:36:37.956Z,71.10
2023-05-21T00:37:37.961Z,71.00
2023-05-21T00:38:37.939Z,71.40
2023-05-21T00:39:37.938Z,71.20
2023-05-21T00:40:37.923Z,71.10
2023-05-21T00:41:37.917Z,71.20
2023-05-21T00:42:37.900Z,71.30
2023-05-21T00:43:37.909Z,71.50
2023-05-21T00:44:37.871Z,71.60
2023-05-21T00:45:38.314Z,71.60
2023-05-21T00:46:37.848Z,71.60
2023-05-21T00:47:37.897Z,71.50
2023-05-21T00:48:37.828Z,71.60
2023-05-21T00:49:37.844Z,71.70
2023-05-21T00:50:37.799Z,71.91
2023-05-21T00:51:37.828Z,71.70
2023-05-21T00:52:37.781Z,71.70
2023-05-21T00:53:37.810Z,72.11
2023-05-21T00:54:37.758Z,71.80
2023-05-21T00:55:38.227Z,71.70
2023-05-21T00:56:37.736Z,71.60
2023-05-21T00:57:37.774Z,71.91
2023-05-21T00:58:37.719Z,71.70
2023-05-21T00:59:37.742Z,71.70
2023-05-21T01:00:37.712Z,71.80
2023-05-21T01:01:37.753Z,71.73
2023-05-21T01:02:37.773Z,71.84
2023-05-21T01:03:37.687Z,72.14
2023-05-21T01:04:37.657Z,72.14
2023-05-21T01:05:37.967Z,71.84
2023-05-21T01:06:37.631Z,72.24
2023-05-21T01:07:37.645Z,72.04
2023-05-21T01:08:37.626Z,72.04
2023-05-21T01:09:37.621Z,72.14
2023-05-21T01:10:37.582Z,72.14
2023-05-21T01:11:37.591Z,72.24
2023-05-21T01:12:37.567Z,72.34
2023-05-21T01:13:37.593Z,72.44
2023-05-21T01:14:37.571Z,72.24
2023-05-21T01:15:37.767Z,72.34
2023-05-21T01:16:37.608Z,72.75
2023-05-21T01:17:37.564Z,72.64
2023-05-21T01:18:37.763Z,72.44
2023-05-21T01:19:37.587Z,72.44
2023-05-21T01:20:37.480Z,72.54
2023-05-21T01:21:42.596Z,72.64
2023-05-21T01:22:37.457Z,72.64
2023-05-21T01:23:37.483Z,72.54
2023-05-21T01:24:37.426Z,72.54
2023-05-21T01:25:37.792Z,72.95
2023-05-21T01:26:37.408Z,72.78
2023-05-21T01:27:37.414Z,72.95
2023-05-21T01:28:37.403Z,72.98
2023-05-21T01:29:37.400Z,72.85
2023-05-21T01:30:37.369Z,72.88
2023-05-21T01:31:37.390Z,73.28
2023-05-21T01:32:37.434Z,72.98
2023-05-21T01:33:37.397Z,72.98
2023-05-21T01:34:37.315Z,73.18
2023-05-21T01:35:37.663Z,73.69
2023-05-21T01:36:37.312Z,73.18
2023-05-21T01:37:37.311Z,73.38
2023-05-21T01:38:37.278Z,73.49
2023-05-21T01:39:37.322Z,73.49
2023-05-21T01:40:37.314Z,73.69
2023-05-21T01:41:37.269Z,73.99
2023-05-21T01:42:37.252Z,73.79
2023-05-21T01:43:37.252Z,73.69
2023-05-21T01:44:37.222Z,73.99
2023-05-21T01:45:37.359Z,73.93
2023-05-21T01:46:37.235Z,74.02
2023-05-21T01:47:37.238Z,74.13
2023-05-21T01:48:37.181Z,74.13
2023-05-21T01:49:37.181Z,74.22
2023-05-21T01:50:37.186Z,74.13
2023-05-21T01:51:37.167Z,74.22
2023-05-21T01:52:37.140Z,74.43
2023-05-21T01:53:37.157Z,74.73
2023-05-21T01:54:37.110Z,74.84
2023-05-21T01:55:37.412Z,75.04
2023-05-21T01:56:37.103Z,75.04
2023-05-21T01:57:37.112Z,75.13
2023-05-21T01:58:37.066Z,75.34
2023-05-21T01:59:37.080Z,75.34
2023-05-21T02:00:37.050Z,75.44
2023-05-21T02:01:37.095Z,75.34
2023-05-21T02:02:37.138Z,75.48
2023-05-21T02:03:37.224Z,75.37
2023-05-21T02:04:37.003Z,75.68
2023-05-21T02:05:37.295Z,75.78
2023-05-21T02:06:36.985Z,75.88
2023-05-21T02:07:36.988Z,75.88
2023-05-21T02:08:36.973Z,75.88
2023-05-21T02:09:36.978Z,76.08
2023-05-21T02:10:36.957Z,76.39
2023-05-21T02:11:36.946Z,76.39
2023-05-21T02:12:36.918Z,76.39
2023-05-21T02:13:36.940Z,76.28
2023-05-21T02:14:36.896Z,76.28
2023-05-21T02:15:37.079Z,76.69
2023-05-21T02:16:36.963Z,76.59
2023-05-21T02:17:36.935Z,76.59
2023-05-21T02:18:36.866Z,76.69
2023-05-21T02:19:36.950Z,76.79
2023-05-21T02:20:36.838Z,76.79
2023-05-21T02:21:36.836Z,76.79
2023-05-21T02:22:36.823Z,76.79
2023-05-21T02:23:36.828Z,76.82
2023-05-21T02:24:36.788Z,77.03
2023-05-21T02:25:37.105Z,77.33
2023-05-21T02:26:36.759Z,77.43
2023-05-21T02:27:36.822Z,77.43
2023-05-21T02:28:36.743Z,77.33
2023-05-21T02:29:36.750Z,77.23
2023-05-21T02:30:36.720Z,77.53
2023-05-21T02:31:36.731Z,77.64
2023-05-21T02:32:36.795Z,77.64
2023-05-21T02:33:36.770Z,77.73
2023-05-21T02:34:36.683Z,77.84
2023-05-21T02:35:37.031Z,78.04
2023-05-21T02:36:36.655Z,78.04
2023-05-21T02:37:36.659Z,78.34
2023-05-21T02:38:36.636Z,78.24
2023-05-21T02:39:36.655Z,78.55
2023-05-21T02:40:36.612Z,78.14
2023-05-21T02:41:36.620Z,78.34
2023-05-21T02:42:36.592Z,78.34
2023-05-21T02:43:36.624Z,78.24
2023-05-21T02:44:36.576Z,78.34
2023-05-21T02:45:36.777Z,78.55
2023-05-21T02:46:36.545Z,78.64
2023-05-21T02:47:36.591Z,78.44
2023-05-21T02:48:36.540Z,78.64
2023-05-21T02:49:36.525Z,78.75
2023-05-21T02:50:36.541Z,78.64
2023-05-21T02:51:36.496Z,78.55
2023-05-21T02:52:36.500Z,78.85
2023-05-21T02:53:36.472Z,78.68
2023-05-21T02:54:36.501Z,79.19
2023-05-21T02:55:36.776Z,79.49
2023-05-21T02:56:36.452Z,79.39
2023-05-21T02:57:36.429Z,79.49
2023-05-21T02:58:36.381Z,79.59
2023-05-21T02:59:36.412Z,79.79
2023-05-21T03:00:36.424Z,79.59
2023-05-21T03:01:36.396Z,79.69
2023-05-21T03:02:36.407Z,79.79
2023-05-21T03:03:36.403Z,79.79
2023-05-21T03:04:36.378Z,79.69
2023-05-21T03:05:36.557Z,79.69
2023-05-21T03:06:36.315Z,79.69
2023-05-21T03:07:36.266Z,79.90
2023-05-21T03:08:36.298Z,80.10
2023-05-21T03:09:36.296Z,80.10
2023-05-21T03:10:36.259Z,80.10
2023-05-21T03:11:36.240Z,80.20
2023-05-21T03:12:36.227Z,80.20
2023-05-21T03:13:36.294Z,80.30
2023-05-21T03:14:36.217Z,80.50
2023-05-21T03:15:36.337Z,80.50
2023-05-21T03:16:36.243Z,80.50
2023-05-21T03:17:36.230Z,80.50
2023-05-21T03:18:36.166Z,80.20
2023-05-21T03:19:36.137Z,80.40
2023-05-21T03:20:36.148Z,80.50
2023-05-21T03:21:36.125Z,80.50
2023-05-21T03:22:36.143Z,80.71
2023-05-21T03:23:36.092Z,80.60
2023-05-21T03:24:36.114Z,80.60
2023-05-21T03:25:36.322Z,80.50
2023-05-21T03:26:36.095Z,80.71
2023-05-21T03:27:36.071Z,80.80
2023-05-21T03:28:36.074Z,80.60
2023-05-21T03:29:36.034Z,80.80
2023-05-21T03:30:36.052Z,80.60
2023-05-21T03:31:36.045Z,80.80
2023-05-21T03:32:36.066Z,81.11
2023-05-21T03:33:35.997Z,80.91
2023-05-21T03:34:36.007Z,80.91
2023-05-21T03:35:36.073Z,80.80
2023-05-21T03:36:35.965Z,80.91
2023-05-21T03:37:35.963Z,80.91
2023-05-21T03:38:37.158Z,81.01
2023-05-21T03:39:35.925Z,80.91
2023-05-21T03:40:35.945Z,81.01
2023-05-21T03:41:35.913Z,81.01
2023-05-21T03:42:35.907Z,80.80
2023-05-21T03:43:35.876Z,80.91
2023-05-21T03:44:35.898Z,81.41
2023-05-21T03:45:36.103Z,81.51
2023-05-21T03:46:35.992Z,81.62
2023-05-21T03:47:35.877Z,81.71
2023-05-21T03:48:35.842Z,81.71
2023-05-21T03:49:35.830Z,81.51
2023-05-21T03:50:35.837Z,81.41
2023-05-21T03:51:35.801Z,81.92
2023-05-21T03:52:35.836Z,81.71
2023-05-21T03:53:35.774Z,81.51
2023-05-21T03:54:35.799Z,82.02
2023-05-21T03:55:35.932Z,81.92
2023-05-21T03:56:35.776Z,82.02
2023-05-21T03:57:35.735Z,82.02
2023-05-21T03:58:35.767Z,81.92
2023-05-21T03:59:35.706Z,81.82
2023-05-21T04:00:35.748Z,82.12
2023-05-21T04:01:35.688Z,81.92
2023-05-21T04:02:35.779Z,81.82
2023-05-21T04:03:37.887Z,81.82
2023-05-21T04:04:35.747Z,81.82
2023-05-21T04:05:35.847Z,82.02
2023-05-21T04:06:35.681Z,82.12
2023-05-21T04:07:35.634Z,82.12
2023-05-21T04:08:35.643Z,82.02
2023-05-21T04:09:36.694Z,82.12
2023-05-21T04:10:35.621Z,81.92
2023-05-21T04:11:35.578Z,81.92
2023-05-21T04:12:35.600Z,82.02
2023-05-21T04:13:35.567Z,82.12
2023-05-21T04:14:35.579Z,82.32
2023-05-21T04:15:35.906Z,82.22
2023-05-21T04:16:35.652Z,81.92
2023-05-21T04:17:35.562Z,81.92
2023-05-21T04:18:35.553Z,82.12
2023-05-21T04:19:35.567Z,82.02
2023-05-21T04:20:35.497Z,82.12
2023-05-21T04:21:35.472Z,82.42
2023-05-21T04:22:35.509Z,82.42
2023-05-21T04:23:35.452Z,82.12
2023-05-21T04:24:35.469Z,82.22
2023-05-21T04:25:35.624Z,82.32
2023-05-21T04:26:35.439Z,82.22
2023-05-21T04:27:35.425Z,82.02
2023-05-21T04:28:35.476Z,82.02
2023-05-21T04:29:35.389Z,82.22
2023-05-21T04:30:35.409Z,82.12
2023-05-21T04:31:35.429Z,82.32
2023-05-21T04:32:35.383Z,82.22
2023-05-21T04:33:35.354Z,82.02
2023-05-21T04:34:35.393Z,82.32
2023-05-21T04:35:35.659Z,82.12
2023-05-21T04:36:35.339Z,82.12
2023-05-21T04:37:35.402Z,82.53
2023-05-21T04:38:35.343Z,82.18
2023-05-21T04:39:35.280Z,81.88
2023-05-21T04:40:36.697Z,82.18
2023-05-21T04:41:35.254Z,81.98
2023-05-21T04:42:35.278Z,81.88
2023-05-21T04:43:35.232Z,81.78
2023-05-21T04:44:35.280Z,81.68
2023-05-21T04:45:35.513Z,81.98
2023-05-21T04:46:35.275Z,81.88
2023-05-21T04:47:35.288Z,81.57
2023-05-21T04:48:35.224Z,81.68
2023-05-21T04:49:35.181Z,81.68
2023-05-21T04:50:35.190Z,81.48
2023-05-21T04:51:35.161Z,81.37
2023-05-21T04:52:35.181Z,81.48
2023-05-21T04:53:35.127Z,81.34
2023-05-21T04:54:35.163Z,81.34
2023-05-21T04:55:35.294Z,81.54
2023-05-21T04:56:35.112Z,81.44
2023-05-21T04:57:35.081Z,81.23
2023-05-21T04:58:35.092Z,80.93
2023-05-21T04:59:35.297Z,80.93
2023-05-21T05:00:35.396Z,81.13
2023-05-21T05:01:35.152Z,80.83
2023-05-21T05:02:35.104Z,80.93
2023-05-21T05:03:35.097Z,80.73
2023-05-21T05:04:35.039Z,80.22
2023-05-21T05:05:35.374Z,80.02
2023-05-21T05:06:35.046Z,79.99
2023-05-21T05:07:35.020Z,79.88
2023-05-21T05:08:35.007Z,79.79
2023-05-21T05:09:34.985Z,79.58
2023-05-21T05:10:35.005Z,79.58
2023-05-21T05:11:34.952Z,79.38
2023-05-21T05:12:34.960Z,79.79
2023-05-21T05:13:34.913Z,79.58
2023-05-21T05:14:34.940Z,79.79
2023-05-21T05:15:35.001Z,79.17
2023-05-21T05:16:34.944Z,79.44
2023-05-21T05:17:34.914Z,79.24
2023-05-21T05:18:34.891Z,79.14
2023-05-21T05:19:34.945Z,78.94
2023-05-21T05:20:34.877Z,78.23
2023-05-21T05:21:34.842Z,78.33
2023-05-21T05:22:34.838Z,77.83
2023-05-21T05:23:34.802Z,77.62
2023-05-21T05:24:34.808Z,77.79
2023-05-21T05:25:34.905Z,78.19
2023-05-21T05:26:34.805Z,78.19
2023-05-21T05:27:36.422Z,77.89
2023-05-21T05:28:34.804Z,77.79
2023-05-21T05:29:34.739Z,77.59
2023-05-21T05:30:34.771Z,76.98
2023-05-21T05:31:34.775Z,77.19
2023-05-21T05:32:34.738Z,77.19
2023-05-21T05:33:34.704Z,76.54
2023-05-21T05:34:34.714Z,75.74
2023-05-21T05:35:34.860Z,75.94
2023-05-21T05:36:34.680Z,75.54
2023-05-21T05:37:34.662Z,75.74
2023-05-21T05:38:34.661Z,75.54
2023-05-21T05:39:34.642Z,75.63
2023-05-21T05:40:34.639Z,75.03
2023-05-21T05:41:34.608Z,75.63
2023-05-21T05:42:34.614Z,75.13
2023-05-21T05:43:34.592Z,75.10
2023-05-21T05:44:34.601Z,74.90
2023-05-21T05:45:34.772Z,74.19
2023-05-21T05:46:34.686Z,74.29
2023-05-21T05:47:34.622Z,74.29
2023-05-21T05:48:34.566Z,74.59
2023-05-21T05:49:34.536Z,74.46
2023-05-21T05:50:34.533Z,74.76
2023-05-21T05:51:34.490Z,74.05
2023-05-21T05:52:34.517Z,74.46
2023-05-21T05:53:34.477Z,73.95
2023-05-21T05:54:34.497Z,73.65
2023-05-21T05:55:34.868Z,73.85
2023-05-21T05:56:34.468Z,73.95
2023-05-21T05:57:34.425Z,74.22
2023-05-21T05:58:34.454Z,73.21
2023-05-21T05:59:34.408Z,72.71
2023-05-21T06:00:34.418Z,73.92
2023-05-21T06:01:34.434Z,73.32
2023-05-21T06:02:34.502Z,72.81
2023-05-21T06:03:34.523Z,73.78
2023-05-21T06:04:34.369Z,72.67
2023-05-21T06:05:34.515Z,73.58
2023-05-21T06:06:34.350Z,71.67
2023-05-21T06:07:34.318Z,72.57
2023-05-21T06:08:36.036Z,71.26
2023-05-21T06:09:34.291Z,71.77
2023-05-21T06:10:34.327Z,71.36
2023-05-21T06:11:34.290Z,70.56
2023-05-21T06:12:34.303Z,72.34
2023-05-21T06:13:34.275Z,71.03
2023-05-21T06:14:34.257Z,71.33
2023-05-21T06:15:34.313Z,70.32
2023-05-21T06:16:34.386Z,70.29
2023-05-21T06:17:34.231Z,70.29
2023-05-21T06:18:34.224Z,70.50
2023-05-21T06:19:34.279Z,69.89
2023-05-21T06:20:34.202Z,70.29
2023-05-21T06:21:34.184Z,69.59
2023-05-21T06:22:34.187Z,69.25
2023-05-21T06:23:34.163Z,69.25
2023-05-21T06:24:34.152Z,69.65
2023-05-21T06:25:34.245Z,68.75
2023-05-21T06:26:34.145Z,69.12
2023-05-21T06:27:34.119Z,68.92
2023-05-21T06:28:34.122Z,68.52
2023-05-21T06:29:34.096Z,67.01
2023-05-21T06:30:34.107Z,67.28
2023-05-21T06:31:34.063Z,67.38
2023-05-21T06:32:34.206Z,66.78
2023-05-21T06:33:34.151Z,66.67
2023-05-21T06:34:34.057Z,65.88
2023-05-21T06:35:34.165Z,66.88
2023-05-21T06:36:34.032Z,66.78
2023-05-21T06:37:34.005Z,66.55
2023-05-21T06:38:33.998Z,65.64
2023-05-21T06:39:33.988Z,65.84
2023-05-21T06:40:33.993Z,67.14
2023-05-21T06:41:33.950Z,67.18
2023-05-21T06:42:33.980Z,67.78
2023-05-21T06:43:33.928Z,67.95
2023-05-21T06:44:33.947Z,66.44
2023-05-21T06:45:33.972Z,66.14
2023-05-21T06:46:34.059Z,66.64
2023-05-21T06:47:33.909Z,64.74
2023-05-21T06:48:33.908Z,64.51
2023-05-21T06:49:33.865Z,64.71
2023-05-21T06:50:33.865Z,65.48
2023-05-21T06:51:33.849Z,65.68
2023-05-21T06:52:33.870Z,65.28
2023-05-21T06:53:33.814Z,65.18
2023-05-21T06:54:33.840Z,64.48
2023-05-21T06:55:33.858Z,65.05
2023-05-21T06:56:33.816Z,65.05
2023-05-21T06:57:33.777Z,65.75
2023-05-21T06:58:33.801Z,64.25
2023-05-21T06:59:33.747Z,63.64
2023-05-21T07:00:33.790Z,64.04
2023-05-21T07:01:33.769Z,65.05
2023-05-21T07:02:33.811Z,62.74
2023-05-21T07:03:33.741Z,63.11
2023-05-21T07:04:33.697Z,62.11
2023-05-21T07:05:33.748Z,62.08
2023-05-21T07:06:33.673Z,61.38
2023-05-21T07:07:33.702Z,60.55
2023-05-21T07:08:33.651Z,59.45
2023-05-21T07:09:33.664Z,60.55
2023-05-21T07:10:33.634Z,61.15
2023-05-21T07:11:33.660Z,59.95
2023-05-21T07:12:33.617Z,58.82
2023-05-21T07:13:33.636Z,58.72
2023-05-21T07:14:33.579Z,58.42
2023-05-21T07:15:33.659Z,58.72
2023-05-21T07:16:33.599Z,58.62
2023-05-21T07:17:33.618Z,58.22
2023-05-21T07:18:33.543Z,58.00
2023-05-21T07:19:33.606Z,58.00
2023-05-21T07:20:33.515Z,58.19
2023-05-21T07:21:33.550Z,57.29
2023-05-21T07:22:33.498Z,57.79
2023-05-21T07:23:33.515Z,57.09
2023-05-21T07:24:33.477Z,57.79
2023-05-21T07:25:33.512Z,58.59
2023-05-21T07:26:33.454Z,57.79
2023-05-21T07:27:33.466Z,57.79
2023-05-21T07:28:33.433Z,57.19
2023-05-21T07:29:33.441Z,57.59
2023-05-21T07:30:33.430Z,58.42
2023-05-21T07:31:33.494Z,58.62
2023-05-21T07:32:33.397Z,58.80
2023-05-21T07:33:33.427Z,58.09
2023-05-21T07:34:33.376Z,58.52
2023-05-21T07:35:33.375Z,58.92
2023-05-21T07:36:33.386Z,58.59
2023-05-21T07:37:33.385Z,56.99
2023-05-21T07:38:33.322Z,58.06
2023-05-21T07:39:33.326Z,58.47
2023-05-21T07:40:33.299Z,57.97
2023-05-21T07:41:33.451Z,57.76
2023-05-21T07:42:33.280Z,58.06
2023-05-21T07:43:33.280Z,57.57
2023-05-21T07:44:33.256Z,57.67
2023-05-21T07:45:33.262Z,58.67
2023-05-21T07:46:33.260Z,57.54
2023-05-21T07:47:33.275Z,57.24
2023-05-21T07:48:35.278Z,56.44
2023-05-21T07:49:33.227Z,56.01
2023-05-21T07:50:33.211Z,55.51
2023-05-21T07:51:33.212Z,55.19
2023-05-21T07:52:33.234Z,54.79
2023-05-21T07:53:33.183Z,54.66
2023-05-21T07:54:33.153Z,54.57
2023-05-21T07:55:33.159Z,54.06
2023-05-21T07:56:33.128Z,53.24
2023-05-21T07:57:33.152Z,52.04
2023-05-21T07:58:33.105Z,52.34
2023-05-21T07:59:33.110Z,52.44
2023-05-21T08:00:33.094Z,52.44
2023-05-21T08:01:33.103Z,52.55
2023-05-21T08:02:33.107Z,52.55
2023-05-21T08:03:33.303Z,52.84
2023-05-21T08:04:33.071Z,54.44
2023-05-21T08:05:33.067Z,54.74
2023-05-21T08:06:33.016Z,54.34
2023-05-21T08:07:33.047Z,53.66
2023-05-21T08:08:33.016Z,54.36
2023-05-21T08:09:33.010Z,54.86
2023-05-21T08:10:32.982Z,53.96
2023-05-21T08:11:33.016Z,53.77
2023-05-21T08:12:32.965Z,53.56
2023-05-21T08:13:32.995Z,53.66
2023-05-21T08:14:32.952Z,53.24
2023-05-21T08:15:32.953Z,52.64
2023-05-21T08:16:33.017Z,53.74
2023-05-21T08:17:32.958Z,53.44
2023-05-21T08:18:32.915Z,53.04
2023-05-21T08:19:32.922Z,53.17
2023-05-21T08:20:32.871Z,53.24
2023-05-21T08:21:32.909Z,52.55
2023-05-21T08:22:32.861Z,52.44
2023-05-21T08:23:32.916Z,54.44
2023-05-21T08:24:32.838Z,53.74
2023-05-21T08:25:32.854Z,54.36
2023-05-21T08:26:32.817Z,53.96
2023-05-21T08:27:32.843Z,53.77
2023-05-21T08:28:32.795Z,53.66
2023-05-21T08:29:32.828Z,54.76
2023-05-21T08:30:32.765Z,55.13
2023-05-21T08:31:32.806Z,53.34
2023-05-21T08:32:32.807Z,53.44
2023-05-21T08:33:32.769Z,53.34
2023-05-21T08:34:32.751Z,53.84
2023-05-21T08:35:32.745Z,52.44
2023-05-21T08:36:32.702Z,52.64
2023-05-21T08:37:32.712Z,53.91
2023-05-21T08:38:32.692Z,52.14
2023-05-21T08:39:32.714Z,52.94
2023-05-21T08:40:32.666Z,53.41
2023-05-21T08:41:32.677Z,53.71
2023-05-21T08:42:36.855Z,53.71
2023-05-21T08:43:32.668Z,52.72
2023-05-21T08:44:32.627Z,51.72
2023-05-21T08:45:32.659Z,51.89
2023-05-21T08:46:32.671Z,51.79
2023-05-21T08:47:32.636Z,51.29
2023-05-21T08:48:32.576Z,52.32
2023-05-21T08:49:32.592Z,51.82
2023-05-21T08:50:32.552Z,51.79
2023-05-21T08:51:32.592Z,52.29
2023-05-21T08:52:32.535Z,51.29
2023-05-21T08:53:32.542Z,50.60
2023-05-21T08:54:32.507Z,50.57
2023-05-21T08:55:32.541Z,50.18
2023-05-21T08:56:32.497Z,49.98
2023-05-21T08:57:32.487Z,51.47
2023-05-21T08:58:32.468Z,51.47
2023-05-21T08:59:32.467Z,51.87
2023-05-21T09:00:32.440Z,49.38
2023-05-21T09:01:32.495Z,48.88
2023-05-21T09:02:32.469Z,49.16
2023-05-21T09:03:32.497Z,50.75
2023-05-21T09:04:32.437Z,50.05
2023-05-21T09:05:32.416Z,49.66
2023-05-21T09:06:32.386Z,50.03
2023-05-21T09:07:32.391Z,48.74
2023-05-21T09:08:32.370Z,50.73
2023-05-21T09:09:32.371Z,47.72
2023-05-21T09:10:32.327Z,49.11
2023-05-21T09:11:32.334Z,48.99
2023-05-21T09:12:32.328Z,48.79
2023-05-21T09:13:32.310Z,47.80
2023-05-21T09:14:32.283Z,46.90
2023-05-21T09:15:32.291Z,46.38
2023-05-21T09:16:32.303Z,47.47
2023-05-21T09:17:32.295Z,48.07
2023-05-21T09:18:32.251Z,46.58
2023-05-21T09:19:32.559Z,46.19
2023-05-21T09:20:32.231Z,46.68
2023-05-21T09:21:32.288Z,47.17
2023-05-21T09:22:32.200Z,48.27
2023-05-21T09:23:32.237Z,46.88
2023-05-21T09:24:35.047Z,45.76
2023-05-21T09:25:32.222Z,45.64
2023-05-21T09:26:32.163Z,45.64
2023-05-21T09:27:32.176Z,44.63
2023-05-21T09:28:32.134Z,44.93
2023-05-21T09:29:32.147Z,44.93
2023-05-21T09:30:34.765Z,45.34
2023-05-21T09:31:32.200Z,45.12
2023-05-21T09:32:32.135Z,44.43
2023-05-21T09:33:32.132Z,45.60
2023-05-21T09:34:32.104Z,45.10
2023-05-21T09:35:32.113Z,44.78
2023-05-21T09:36:32.069Z,45.68
2023-05-21T09:37:32.055Z,45.26
2023-05-21T09:38:32.062Z,44.56
2023-05-21T09:39:32.078Z,44.35
2023-05-21T09:40:32.014Z,42.76
2023-05-21T09:41:32.030Z,42.36
2023-05-21T09:42:31.979Z,42.78
2023-05-21T09:43:31.995Z,42.58
2023-05-21T09:44:31.986Z,43.08
2023-05-21T09:45:31.992Z,43.60
2023-05-21T09:46:32.008Z,44.29
2023-05-21T09:47:31.993Z,44.59
2023-05-21T09:48:31.920Z,43.20
2023-05-21T09:49:31.930Z,43.79
2023-05-21T09:50:31.922Z,43.02
2023-05-21T09:51:31.933Z,43.91
2023-05-21T09:52:31.882Z,45.68
2023-05-21T09:53:31.908Z,44.19
2023-05-21T09:54:31.859Z,43.49
2023-05-21T09:55:31.887Z,44.78
2023-05-21T09:56:31.847Z,44.56
2023-05-21T09:57:31.871Z,44.67
2023-05-21T09:58:31.814Z,43.87
2023-05-21T09:59:31.853Z,43.38
2023-05-21T10:00:31.811Z,43.48
2023-05-21T10:01:31.838Z,44.27
2023-05-21T10:02:31.808Z,45.56
2023-05-21T10:03:31.814Z,45.56
2023-05-21T10:04:31.809Z,46.15
2023-05-21T10:05:31.773Z,46.64
2023-05-21T10:06:31.735Z,47.34
2023-05-21T10:07:31.754Z,45.85
2023-05-21T10:08:31.730Z,45.48
2023-05-21T10:09:31.732Z,45.57
2023-05-21T10:10:31.735Z,47.19
2023-05-21T10:11:31.691Z,46.79
2023-05-21T10:12:31.676Z,46.59
2023-05-21T10:13:31.695Z,45.79
2023-05-21T10:14:31.654Z,46.98
2023-05-21T10:15:31.664Z,45.60
2023-05-21T10:16:31.650Z,45.60
2023-05-21T10:17:31.708Z,46.89
2023-05-21T10:18:31.617Z,47.68
2023-05-21T10:19:31.697Z,47.16
2023-05-21T10:20:31.579Z,47.56
2023-05-21T10:21:31.578Z,47.56
2023-05-21T10:22:31.566Z,48.45
2023-05-21T10:23:31.605Z,49.57
2023-05-21T10:24:31.537Z,49.17
2023-05-21T10:25:31.574Z,48.27
2023-05-21T10:26:31.528Z,48.18
2023-05-21T10:27:32.465Z,47.98
2023-05-21T10:28:31.501Z,48.57
2023-05-21T10:29:31.543Z,47.75
2023-05-21T10:30:31.475Z,48.25
2023-05-21T10:31:31.486Z,47.04
2023-05-21T10:32:31.547Z,47.04
2023-05-21T10:33:31.505Z,48.82
2023-05-21T10:34:31.425Z,48.33
2023-05-21T10:35:31.453Z,47.44
2023-05-21T10:36:31.433Z,47.81
2023-05-21T10:37:31.450Z,47.02
2023-05-21T10:38:31.390Z,45.83
2023-05-21T10:39:31.419Z,46.01
2023-05-21T10:40:31.381Z,46.50
2023-05-21T10:41:31.387Z,45.71
2023-05-21T10:42:31.347Z,46.30
2023-05-21T10:43:31.383Z,45.12
2023-05-21T10:44:31.335Z,45.89
2023-05-21T10:45:31.378Z,46.30
2023-05-21T10:46:31.313Z,46.18
2023-05-21T10:47:31.324Z,44.10
2023-05-21T10:48:31.305Z,44.80
2023-05-21T10:49:31.325Z,44.60
2023-05-21T10:50:31.271Z,44.90
2023-05-21T10:51:31.290Z,44.90
2023-05-21T10:52:31.245Z,45.71
2023-05-21T10:53:31.248Z,45.01
2023-05-21T10:54:31.260Z,45.19
2023-05-21T10:55:31.227Z,45.17
2023-05-21T10:56:31.217Z,45.07
2023-05-21T10:57:31.217Z,44.78
2023-05-21T10:58:31.174Z,45.59
2023-05-21T10:59:31.208Z,45.47
2023-05-21T11:00:31.156Z,45.86
2023-05-21T11:01:31.206Z,44.87
2023-05-21T11:02:31.250Z,45.76
2023-05-21T11:03:31.778Z,46.55
2023-05-21T11:04:31.116Z,45.07
2023-05-21T11:05:31.143Z,43.19
2023-05-21T11:06:31.101Z,43.37
2023-05-21T11:07:31.121Z,43.27
2023-05-21T11:08:31.070Z,43.47
2023-05-21T11:09:31.160Z,42.97
2023-05-21T11:10:31.108Z,42.76
2023-05-21T11:11:31.076Z,41.79
2023-05-21T11:12:31.049Z,42.38
2023-05-21T11:13:31.034Z,42.29
2023-05-21T11:14:31.014Z,42.19
2023-05-21T11:15:31.044Z,43.17
2023-05-21T11:16:31.063Z,43.47
2023-05-21T11:17:31.028Z,43.35
2023-05-21T11:18:31.028Z,42.66
2023-05-21T11:19:33.326Z,41.39
2023-05-21T11:20:30.958Z,42.29
2023-05-21T11:21:30.962Z,43.88
2023-05-21T11:22:30.965Z,44.46
2023-05-21T11:23:30.918Z,41.99
2023-05-21T11:24:30.941Z,43.66
2023-05-21T11:25:30.891Z,42.78
2023-05-21T11:26:30.904Z,42.58
2023-05-21T11:27:30.877Z,43.07
2023-05-21T11:28:30.900Z,43.07
2023-05-21T11:29:30.863Z,44.28
2023-05-21T11:30:30.868Z,42.99
2023-05-21T11:31:30.867Z,44.48
2023-05-21T11:32:30.862Z,41.91
2023-05-21T11:33:30.819Z,41.71
2023-05-21T11:34:30.813Z,42.80
2023-05-21T11:35:30.796Z,42.01
2023-05-21T11:36:30.796Z,41.71
2023-05-21T11:37:30.798Z,39.83
2023-05-21T11:38:30.782Z,41.10
2023-05-21T11:39:30.773Z,39.91
2023-05-21T11:40:30.783Z,40.01
2023-05-21T11:41:30.723Z,39.62
2023-05-21T11:42:30.745Z,39.72
2023-05-21T11:43:30.702Z,39.03
2023-05-21T11:44:30.706Z,39.62
2023-05-21T11:45:30.698Z,40.90
2023-05-21T11:46:30.736Z,40.31
2023-05-21T11:47:30.716Z,38.53
2023-05-21T11:48:32.410Z,40.50
2023-05-21T11:49:30.648Z,39.32
2023-05-21T11:50:30.700Z,38.71
2023-05-21T11:51:30.618Z,38.81
2023-05-21T11:52:30.629Z,37.92
2023-05-21T11:53:30.609Z,37.72
2023-05-21T11:54:30.632Z,37.62
2023-05-21T11:55:30.589Z,38.63
2023-05-21T11:56:30.602Z,38.92
2023-05-21T11:57:30.568Z,40.01
2023-05-21T11:58:30.567Z,39.52
2023-05-21T11:59:30.539Z,39.52
2023-05-21T12:00:30.569Z,38.21
2023-05-21T12:01:30.513Z,37.92
2023-05-21T12:02:30.625Z,38.21
2023-05-21T12:03:30.786Z,37.23
2023-05-21T12:04:30.524Z,37.52
2023-05-21T12:05:30.501Z,38.02
2023-05-21T12:06:30.553Z,36.34
2023-05-21T12:07:30.458Z,35.35
2023-05-21T12:08:30.476Z,35.35
2023-05-21T12:09:30.431Z,36.06
2023-05-21T12:10:30.452Z,35.07
2023-05-21T12:11:30.418Z,35.49
2023-05-21T12:12:38.852Z,35.78
2023-05-21T12:13:30.412Z,35.58
2023-05-21T12:14:30.475Z,35.86
2023-05-21T12:15:30.384Z,35.76
2023-05-21T12:16:30.388Z,35.15
2023-05-21T12:17:30.359Z,34.27
2023-05-21T12:18:30.377Z,34.46
2023-05-21T12:19:30.444Z,33.46
2023-05-21T12:20:30.347Z,33.46
2023-05-21T12:21:30.302Z,33.84
2023-05-21T12:22:30.330Z,33.04
2023-05-21T12:23:30.285Z,32.56
2023-05-21T12:24:30.311Z,32.14
2023-05-21T12:25:30.263Z,32.95
2023-05-21T12:26:30.274Z,32.44
2023-05-21T12:27:30.242Z,32.54
2023-05-21T12:28:30.262Z,31.63
2023-05-21T12:29:30.222Z,30.85
2023-05-21T12:30:30.251Z,31.34
2023-05-21T12:31:30.227Z,31.52
2023-05-21T12:32:30.218Z,31.60
2023-05-21T12:33:30.186Z,31.70
2023-05-21T12:34:30.198Z,31.09
2023-05-21T12:35:30.216Z,30.47
2023-05-21T12:36:30.177Z,31.45
2023-05-21T12:37:30.142Z,31.04
2023-05-21T12:38:30.146Z,30.15
2023-05-21T12:39:30.124Z,30.04
2023-05-21T12:40:30.135Z,29.64
2023-05-21T12:41:30.115Z,30.14
2023-05-21T12:42:30.115Z,29.85
2023-05-21T12:43:30.079Z,29.94
2023-05-21T12:44:30.098Z,29.34
2023-05-21T12:45:30.072Z,30.32
2023-05-21T12:46:30.182Z,29.93
2023-05-21T12:47:30.073Z,29.93
2023-05-21T12:48:30.057Z,29.44
2023-05-21T12:49:30.013Z,29.83
2023-05-21T12:50:30.054Z,29.63
2023-05-21T12:51:29.996Z,30.22
2023-05-21T12:52:30.001Z,30.70